Airfield :
LOGIN :

Register | Disclaimer

   EN    FR    IT 

 










Legend :    VFR   Marginal VFR   IFR   Intensive IFR   Very Intensive IFR
Visi :
Ceiling :
>= 8 km
>= 3000ft
5 to 8 km
1000 to 3000 ft
1500m to 5 km
500 to 1000 ft
800 to 1500m
200 to 500 ft
< 800m
< 200 ft
Symbols :   Thunderstorms  Fog  Heavy snow  Heavy precipitations  Wind > 20 kt
SIGMETs :     Misc.  Thunderstorms  Icing  Turbulence  Mountain Waves  Volcanic Ashes






- Airport Elevation : 38 ft
- IATA code : BOH


EGHH - Bournemouth

CURRENT METAR :
  • 100920Z 20017G27KT 5000 RA BR BKN014 10/09 Q1017

EXPIRED METARs :
  • 100850Z 20017KT 9000 RA BKN019 10/08 Q1017
  • 100820Z 21017KT 9999 FEW019 BKN021 10/07 Q1018
  • 100750Z 21016KT 9999 FEW020 BKN023 11/07 Q1018
  • 100720Z 22017KT 9999 BKN030 11/06 Q1019

TAF TAF EGHH
Valid from the 10 at 09:00 until the 10 at 18:00 UTC


100807Z 1009/1018 20016KT 9999 SCT008 BKN020
BECMG 1009/1012 20022G35KT
TEMPO 1009/1015 6000 RA BKN008
PROB40
TEMPO 1012/1018 20028G45KT
PROB30
TEMPO 1016/1018 3000 +RA BKN004
ATIS : +44 1202 364 151
Met : +44 1202 364 158 (TAF)



MET'MAP, your aeronautical weather chart ! - Copyright ORBIFLY December 2007 - Disclaimer

ORBIFLY MET'MAP TEAM :

Programming & Development : Alexandra Zaïnal
Concept & original design : Baudouin d'Aumeries
Assistance for programming : Marc-Olivier Méhu
Technical & hardware support : Manuel Goepfert

Contact : metmap@orbifly.com




SOURCES & CREDITS :

   NOAA